San Sebastian, Spain

3:50 PM CET on February 12, 2016 (GMT +0100)
San Sebastian | | Change Station
CLOSE
Current Station
Airport
Location: San Sebastian,
Elevation: 26 ft
Nearby Weather Stations

Elev 26 ft 43.36 °N, 1.79 °W | Updated 20 minutes ago

Light Rain
Light Rain
55 °F
Feels Like 55 °F
N
13
Wind Variable Wind from SSW

Today
High -- | Low -- °F
--% Chance of Precip.
Yesterday
High -- | Low -- °F
Precip. -- in
Pressure 29.62 in
Visibility 6.2 miles
Clouds Scattered Clouds 1500 ft
Overcast 2500 ft
Dew Point 55 °F
Humidity 100%
Rainfall 0.00 in
Snow Depth Not available.
8:10 AM 6:32 PM
Waxing Crescent, 21% visible
METAR LESO 121430Z 21011KT 180V260 9999 -RA SCT015 OVC025 13/13 Q1003
Pressure 29.62 in
Visibility 6.2 miles
Clouds Scattered Clouds 1500 ft
Overcast 2500 ft
Dew Point 55 °F
Humidity 100%
Rainfall 0.00 in
Snow Depth Not available.
8:10 AM 6:32 PM
Waxing Crescent, 21% visible
METAR LESO 121430Z 21011KT 180V260 9999 -RA SCT015 OVC025 13/13 Q1003

10-Day Weather Forecast

Almanac

Astronomy

Feb. 12, 2016 Rise Set
Actual Time
Civil Twilight
Nautical Twilight
Astronomical Twilight
Moon
Length of Visible Light
Length of Day
Tomorrow will be .
, % of the Moon is Illuminated

Today's Extremes

Country Highs Country Lows

Community

WunderPhotos

Upload Photos

1,892,318 photos uploaded!

WunderBlog® & News

Nearby

Air Quality

  Air Quality AQ Index Pollutant
Not available.

Snow Depth

Station Depth Elevation

Earthquake Activity

City Distance Mag. Time & Date
Minimum magnitude displayed is 2.5.

Coastal Water Temperatures

Place Temperature

Stations

Nearby Weather Stations

Station Location Temp. Windchill Dew Point Humidity Wind Precip. Elev Updated Type